Howells, New York
Current Conditions -  °F | °C
As of 8:54 AM on Sunday 21 Dec 2014 (Local Time) from KMGJ Reporting Station
Overcast Overcast  
Wind Chill: 22°   Ceiling: 1900
Heat Index: 29°   Visibility: 10mi
Dew Point: 25°   Wind: 7mph
Humidity: 85%   Direction: 20°NNE
Pressure: 30.29"   Gusts: NA
Location:  41.48°N, 74.47°W
Report Text: KMGJ 211354Z AUTO 02006KT 10SM SCT011 OVC019 M02/M04 A3029 RMK AO2 SLP263 T10171039 TSNO
Loading
Personal Weather Stations






























Interactive Weather Map New forecast layout! Learn more

10-Day Weather Forecast

Advertisements
Track Severe Weather on mobile